Accueil
METAR-TAF:

METAR-TAF

Aéroports :

Moab, Utah, États-Unis

latitude: 38-45-36N, longitude: 109-44-41W, altitude: 1388 m

Observation

Le bulletin a été fait il y a 58 minutes, à 20:53 UTC
Vent 3 kt de direction variable
Température 29°C
Humidité 14%
Pression 1023 hPa
Visibilité: 16.1 km
Ciel clair

METAR: KCNY 262053Z AUTO VRB03KT 10SM CLR 29/M01 A3021 RMK AO2 SLP179 T02891006 58020

Heure: 15:51 (21:51 UTC)

Prévision

Le bulletin a été fait il y a 4 heures et 14 minutes, à 17:37 UTC
Prévision valable du 26 à 18 UTC au 27 à 18 UTC
Vent 4 kt de direction variable
Visibilité: 10 km
Ciel clair

TAF: KCNY 261737Z 2618/2718 VRB04KT P6SM SKC

Observations et prévisions météorologiques de plus de 4000 aéroports (messages METAR et TAF).

Les stations disponibles sont représentées par des disques jaunes et rouges sur la carte.

Passer la souris dessus pour voir le nom de la station.

Cliquer dessus pour voir les observations et prévisions météorologiques.

Pour changer de carte: cliquez sur les boutons verts avec une croix noire pour zoomer, sur le bouton vert avec un tiret pour effectuer un zoom arrière, ou sur les flèches vertes pour les cartes adjacentes.


METAR-TAF: